Terminal Aerodrome Forecast
Issued by NWS Duluth, MN

Home | Current Version | Previous Version | Text Only | Print | Product List | Glossary On
Versions: 1 2 3 4 5 6 7 8 9 10 11 12 13 14 15 16 17 18 19 20 21 22 23 24 25 26 27 28
000
FTUS43 KDLH 260500
TAFINL
TAF
KINL 260525Z 2606/2706 32005KT P6SM -SN OVC022
     FM260900 34006KT P6SM OVC017
     FM261600 32008KT P6SM -SN OVC023
     FM262300 30005KT P6SM OVC015
     FM270300 31004KT P6SM BKN022=

USA.gov is the U.S. government's official web portal to all federal, state and local government web resources and services.